createdAt,value
2022-10-16T00:07:02.868Z,10.90
2022-10-16T00:17:06.138Z,11.00
2022-10-16T00:27:10.755Z,11.10
2022-10-16T00:37:14.656Z,11.20
2022-10-16T00:47:25.092Z,11.20
2022-10-16T00:57:28.608Z,11.30
2022-10-16T01:07:45.500Z,11.20
2022-10-16T01:17:57.486Z,11.20
2022-10-16T01:28:03.596Z,11.20
2022-10-16T01:38:14.718Z,11.10
2022-10-16T01:48:21.762Z,11.00
2022-10-16T01:58:27.901Z,11.00
2022-10-16T02:08:33.422Z,11.00
2022-10-16T02:18:36.811Z,10.90
2022-10-16T02:28:48.035Z,10.60
2022-10-16T02:38:51.644Z,10.40
2022-10-16T02:48:56.255Z,10.20
2022-10-16T02:58:59.761Z,10.10
2022-10-16T03:09:04.702Z,10.10
2022-10-16T03:19:07.948Z,10.10
2022-10-16T03:29:12.603Z,10.00
2022-10-16T03:39:15.981Z,9.60
2022-10-16T03:49:20.596Z,9.00
2022-10-16T03:59:23.830Z,8.60
2022-10-16T04:09:28.473Z,8.60
2022-10-16T04:19:31.679Z,8.80
2022-10-16T04:29:36.345Z,8.90
2022-10-16T04:39:39.592Z,8.70
2022-10-16T04:49:44.184Z,8.20
2022-10-16T04:59:47.414Z,7.90
2022-10-16T05:09:51.977Z,7.70
2022-10-16T05:19:55.459Z,7.60
2022-10-16T05:30:00.290Z,7.60
2022-10-16T05:40:03.848Z,7.70
2022-10-16T05:50:09.650Z,8.00
2022-10-16T06:00:13.694Z,8.50
2022-10-16T06:10:18.487Z,9.00
2022-10-16T06:20:21.763Z,9.50
2022-10-16T06:30:26.422Z,10.10
2022-10-16T06:40:29.722Z,11.00
2022-10-16T06:50:34.285Z,11.90
2022-10-16T07:00:37.487Z,13.10
2022-10-16T07:10:42.077Z,13.60
2022-10-16T07:20:45.338Z,13.80
2022-10-16T07:30:50.112Z,14.00
2022-10-16T07:40:59.968Z,14.70
2022-10-16T07:51:07.452Z,17.50
2022-10-16T08:01:14.112Z,19.10
2022-10-16T08:11:18.965Z,19.50
2022-10-16T08:21:24.880Z,20.70
2022-10-16T08:31:29.524Z,22.30
2022-10-16T08:42:03.546Z,23.50
2022-10-16T08:52:15.019Z,28.20
2022-10-16T09:02:31.353Z,29.40
2022-10-16T09:12:43.539Z,31.50
2022-10-16T09:22:47.063Z,31.20
2022-10-16T09:32:55.024Z,29.70
2022-10-16T09:43:05.226Z,31.40
2022-10-16T09:53:14.845Z,31.50
2022-10-16T10:03:35.852Z,31.10
2022-10-16T10:13:40.529Z,32.20
2022-10-16T10:23:43.730Z,30.00
2022-10-16T10:33:56.883Z,31.30
2022-10-16T10:44:09.843Z,31.20
2022-10-16T10:54:24.527Z,34.40
2022-10-16T11:05:16.576Z,32.10
2022-10-16T11:15:26.380Z,28.70
2022-10-16T11:25:32.066Z,26.20
2022-10-16T11:35:44.265Z,24.70
2022-10-16T11:45:51.815Z,24.50
2022-10-16T11:55:56.714Z,23.40
2022-10-16T12:06:15.191Z,22.30
2022-10-16T12:16:26.415Z,21.60
2022-10-16T12:26:32.409Z,21.00
2022-10-16T12:36:37.454Z,21.10
2022-10-16T12:46:42.180Z,22.70
2022-10-16T12:57:19.502Z,22.30
2022-10-16T13:07:49.717Z,21.70
2022-10-16T13:18:05.812Z,21.60
2022-10-16T13:28:12.271Z,21.20
2022-10-16T13:38:19.773Z,21.30
2022-10-16T13:48:23.039Z,20.80
2022-10-16T13:58:27.705Z,20.50
2022-10-16T14:08:32.967Z,20.10
2022-10-16T14:18:40.117Z,19.40
2022-10-16T14:28:45.354Z,19.00
2022-10-16T14:39:06.995Z,18.70
2022-10-16T14:49:20.836Z,18.80
2022-10-16T14:59:31.244Z,19.00
2022-10-16T15:09:34.643Z,18.50
2022-10-16T15:19:39.254Z,17.70
2022-10-16T15:29:42.732Z,17.20
2022-10-16T15:39:47.325Z,17.00
2022-10-16T15:49:50.779Z,16.40
2022-10-16T16:10:04.203Z,14.80
2022-10-16T16:20:11.270Z,14.30
2022-10-16T16:30:18.382Z,13.70
2022-10-16T16:40:24.628Z,13.00
2022-10-16T16:50:28.053Z,12.40
2022-10-16T17:00:32.998Z,12.00
2022-10-16T17:10:36.266Z,11.60
2022-10-16T17:20:41.420Z,11.30
2022-10-16T17:30:45.776Z,11.20
2022-10-16T17:40:50.348Z,11.20
2022-10-16T17:50:53.571Z,11.00
2022-10-16T18:00:58.166Z,10.80
2022-10-16T18:11:01.452Z,10.40
2022-10-16T18:21:11.249Z,10.20
2022-10-16T18:31:16.446Z,10.00
2022-10-16T18:41:21.301Z,9.90
2022-10-16T18:51:27.123Z,9.70
2022-10-16T19:01:35.299Z,9.50
2022-10-16T19:11:42.227Z,9.50
2022-10-16T19:21:48.250Z,9.40
2022-10-16T19:31:51.879Z,9.40
2022-10-16T19:41:56.825Z,9.10
2022-10-16T19:52:00.092Z,9.10
2022-10-16T20:02:04.788Z,9.00
2022-10-16T20:12:08.122Z,8.90
2022-10-16T20:22:13.146Z,8.80
2022-10-16T20:32:16.446Z,8.80
2022-10-16T20:42:21.078Z,8.80
2022-10-16T20:52:25.033Z,8.70
2022-10-16T21:02:30.076Z,8.60
2022-10-16T21:12:33.494Z,8.60
2022-10-16T21:22:38.150Z,8.40
2022-10-16T21:32:41.516Z,8.10
2022-10-16T21:42:46.126Z,8.00
2022-10-16T21:52:49.409Z,7.90
2022-10-16T22:02:54.030Z,7.70
2022-10-16T22:12:57.227Z,7.50
2022-10-16T22:23:01.791Z,7.40
2022-10-16T22:33:05.715Z,7.30
2022-10-16T22:43:10.337Z,7.20
2022-10-16T22:53:13.595Z,7.30
2022-10-16T23:03:18.262Z,7.10
2022-10-16T23:13:21.574Z,7.10
2022-10-16T23:23:26.188Z,6.90
2022-10-16T23:33:29.500Z,6.90
2022-10-16T23:43:34.726Z,6.70
2022-10-16T23:53:38.408Z,6.60
